Time;durP1;ratioP1;P1;durP2;ratioP2;P2;SDS_P1;SDS_P2;PMS_P1;PMS_P2;Temp;Humidity;BMP_temperature;BMP_pressure;BME280_temperature;BME280_humidity;BME280_pressure;Samples;Min_cycle;Max_cycle;Signal;HPM_P1;HPM_P2
2023/06/29 00:01:55;;;;;;;6.20;5.60;;;23.60;49.40;;;;;;5057771;28;20887;-86
2023/06/29 00:04:25;;;;;;;6.23;5.63;;;23.60;49.70;;;;;;5068764;28;20863;-87
2023/06/29 00:06:53;;;;;;;5.83;5.13;;;23.50;50.10;;;;;;5067584;28;20467;-87
2023/06/29 00:09:22;;;;;;;5.73;5.33;;;23.50;50.20;;;;;;5078929;28;20508;-87
2023/06/29 00:11:50;;;;;;;5.80;5.20;;;23.50;50.30;;;;;;5064023;28;20486;-87
2023/06/29 00:14:17;;;;;;;5.80;5.20;;;23.40;50.50;;;;;;5077038;28;20450;-87
2023/06/29 00:16:44;;;;;;;9.00;5.27;;;23.50;50.50;;;;;;5076375;28;20527;-87
2023/06/29 00:19:14;;;;;;;6.23;5.40;;;23.40;50.30;;;;;;5054650;28;20444;-87
2023/06/29 00:21:41;;;;;;;6.10;5.60;;;23.20;49.60;;;;;;5054930;28;20470;-88
2023/06/29 00:24:10;;;;;;;5.30;4.90;;;23.10;50.00;;;;;;5071051;28;20465;-87
2023/06/29 00:26:38;;;;;;;5.40;4.90;;;23.10;50.00;;;;;;5078737;28;20485;-86
2023/06/29 00:29:06;;;;;;;6.33;4.90;;;23.10;49.80;;;;;;5084281;28;20443;-86
2023/06/29 00:31:36;;;;;;;5.47;5.07;;;23.10;49.80;;;;;;5072545;28;20486;-89
2023/06/29 00:34:03;;;;;;;5.80;5.27;;;23.10;49.90;;;;;;5092865;28;20447;-87
2023/06/29 00:36:33;;;;;;;5.65;5.15;;;23.10;49.80;;;;;;5052603;28;20458;-86
2023/06/29 00:39:00;;;;;;;6.30;5.70;;;23.00;50.00;;;;;;5074268;27;20196;-87
2023/06/29 00:41:27;;;;;;;5.47;4.97;;;23.00;50.30;;;;;;5053257;28;20245;-86
2023/06/29 00:43:55;;;;;;;5.97;5.43;;;23.00;50.50;;;;;;5087466;27;20535;-87
2023/06/29 00:46:24;;;;;;;8.40;5.03;;;23.00;50.60;;;;;;5062473;28;20194;-86
2023/06/29 00:48:51;;;;;;;6.50;5.77;;;23.00;50.70;;;;;;5083605;28;20475;-86
2023/06/29 00:51:18;;;;;;;6.30;5.73;;;23.00;51.10;;;;;;5078833;28;20559;-87
2023/06/29 00:53:45;;;;;;;5.70;5.20;;;22.90;50.70;;;;;;5086305;28;20439;-86
2023/06/29 00:56:13;;;;;;;5.80;5.30;;;23.00;50.60;;;;;;5079326;28;21092;-87
2023/06/29 00:58:41;;;;;;;6.10;5.50;;;22.90;50.30;;;;;;5093495;28;20824;-87
2023/06/29 01:01:08;;;;;;;7.13;6.50;;;22.90;50.30;;;;;;5080485;28;20446;-87
2023/06/29 01:03:40;;;;;;;7.83;5.77;;;22.90;50.30;;;;;;5071282;28;20782;-86
2023/06/29 01:06:13;;;;;;;6.07;5.57;;;22.80;50.30;;;;;;5065110;28;20475;-86
2023/06/29 01:08:46;;;;;;;6.20;5.60;;;22.80;50.60;;;;;;5057245;28;20470;-87
2023/06/29 01:11:14;;;;;;;7.30;5.53;;;22.70;50.70;;;;;;5078078;28;20522;-87
2023/06/29 01:13:44;;;;;;;6.37;5.60;;;22.70;50.70;;;;;;5053913;28;20457;-87
2023/06/29 01:16:12;;;;;;;6.40;5.80;;;22.10;51.90;;;;;;5053162;28;20451;-86
2023/06/29 01:18:45;;;;;;;7.55;6.13;;;21.90;52.40;;;;;;5076934;28;20644;-87
2023/06/29 01:21:13;;;;;;;7.70;6.07;;;22.10;52.10;;;;;;5076487;28;20189;-87
2023/06/29 01:23:41;;;;;;;6.03;5.50;;;22.20;51.80;;;;;;5062806;28;20451;-88
2023/06/29 01:26:10;;;;;;;6.53;5.80;;;22.30;51.60;;;;;;5044539;28;20463;-87
2023/06/29 01:28:38;;;;;;;6.37;5.80;;;22.30;51.40;;;;;;5084952;28;20463;-90
2023/06/29 01:31:05;;;;;;;6.13;5.03;;;22.30;51.20;;;;;;5082402;28;20961;-86
2023/06/29 01:33:33;;;;;;;5.37;4.97;;;22.40;51.10;;;;;;5075798;28;20464;-87
2023/06/29 01:36:07;;;;;;;6.03;5.43;;;22.40;50.80;;;;;;5066822;27;20546;-88
2023/06/29 01:38:44;;;;;;;6.75;6.10;;;22.40;50.90;;;;;;5077684;28;20483;-87
2023/06/29 01:41:17;;;;;;;5.87;5.37;;;22.40;50.90;;;;;;5051305;28;21043;-87
2023/06/29 01:43:44;;;;;;;6.17;5.57;;;22.40;50.70;;;;;;5083145;28;20462;-87
2023/06/29 01:46:14;;;;;;;6.28;5.78;;;22.40;50.50;;;;;;5087709;28;20550;-87
2023/06/29 01:48:42;;;;;;;5.97;5.37;;;22.30;50.60;;;;;;5077355;28;20204;-86
2023/06/29 01:51:09;;;;;;;6.40;5.77;;;22.30;50.60;;;;;;5050687;28;20455;-86
2023/06/29 01:53:37;;;;;;;6.20;5.60;;;22.30;51.00;;;;;;5063144;28;20455;-87
2023/06/29 01:56:05;;;;;;;6.93;6.27;;;22.10;51.50;;;;;;5097080;28;20447;-86
2023/06/29 01:58:33;;;;;;;6.60;5.97;;;21.90;52.00;;;;;;5046884;28;20832;-86
2023/06/29 02:01:00;;;;;;;5.83;5.33;;;21.90;52.00;;;;;;5050554;28;20924;-86
2023/06/29 02:03:27;;;;;;;7.60;5.53;;;21.90;51.80;;;;;;5075276;28;20527;-86
2023/06/29 02:05:55;;;;;;;7.07;6.47;;;22.00;52.10;;;;;;5077730;28;20504;-88
2023/06/29 02:08:22;;;;;;;7.47;6.77;;;22.00;52.40;;;;;;5052529;28;20471;-87
2023/06/29 02:10:49;;;;;;;6.43;5.90;;;22.00;52.10;;;;;;5049512;28;20448;-86
2023/06/29 02:13:17;;;;;;;6.20;5.73;;;22.00;52.20;;;;;;5080002;28;20463;-87
2023/06/29 02:15:45;;;;;;;6.00;5.30;;;22.00;52.10;;;;;;5077509;28;20471;-87
2023/06/29 02:18:12;;;;;;;7.07;6.37;;;21.90;51.60;;;;;;5052956;28;20443;-87
2023/06/29 02:20:42;;;;;;;5.67;5.27;;;22.00;51.70;;;;;;5092030;28;20443;-88
2023/06/29 02:23:09;;;;;;;6.50;5.90;;;21.90;51.50;;;;;;5067742;28;20467;-86
2023/06/29 02:25:36;;;;;;;6.07;5.57;;;21.90;51.60;;;;;;5091103;28;20456;-86
2023/06/29 02:28:04;;;;;;;9.20;6.00;;;21.80;51.40;;;;;;5052728;28;20976;-90
2023/06/29 02:30:31;;;;;;;7.23;5.90;;;21.80;51.60;;;;;;5052145;28;20460;-85
2023/06/29 02:33:00;;;;;;;6.60;5.90;;;21.80;51.60;;;;;;5079285;28;22237;-86
2023/06/29 02:35:27;;;;;;;7.27;6.40;;;21.80;51.70;;;;;;5084820;28;20447;-87
2023/06/29 02:37:54;;;;;;;6.40;5.90;;;21.80;51.90;;;;;;5049267;28;20450;-86
2023/06/29 02:40:21;;;;;;;6.77;6.17;;;21.70;51.90;;;;;;5068994;28;20457;-87
2023/06/29 02:42:48;;;;;;;7.07;6.47;;;21.70;51.80;;;;;;5075941;28;20478;-87
2023/06/29 02:45:15;;;;;;;7.57;6.90;;;21.30;52.80;;;;;;5064190;28;20446;-86
2023/06/29 02:47:42;;;;;;;6.53;5.93;;;20.70;54.30;;;;;;5076038;28;20828;-86
2023/06/29 02:50:11;;;;;;;7.20;6.60;;;20.90;53.80;;;;;;5054281;28;20534;-85
2023/06/29 02:52:45;;;;;;;6.53;5.93;;;21.10;52.90;;;;;;5058278;28;20475;-88
2023/06/29 02:55:12;;;;;;;7.40;6.70;;;21.20;52.60;;;;;;5083732;28;20508;-86
2023/06/29 02:57:40;;;;;;;6.57;6.07;;;21.20;52.80;;;;;;5064057;28;20509;-90
2023/06/29 03:00:10;;;;;;;6.40;5.80;;;21.30;52.90;;;;;;5052338;28;20940;-86
2023/06/29 03:02:38;;;;;;;7.07;5.97;;;21.30;52.80;;;;;;5083714;28;20575;-87
2023/06/29 03:05:06;;;;;;;7.00;6.30;;;21.40;52.90;;;;;;5063418;28;20981;-86
2023/06/29 03:07:36;;;;;;;8.67;6.57;;;21.40;52.90;;;;;;5079066;28;20463;-87
2023/06/29 03:10:04;;;;;;;9.30;6.60;;;21.40;52.70;;;;;;5076102;28;20520;-86
2023/06/29 03:12:32;;;;;;;7.20;6.60;;;21.40;53.00;;;;;;5058259;28;20467;-90
2023/06/29 03:14:59;;;;;;;7.70;6.90;;;21.40;53.20;;;;;;5050964;28;20204;-88
2023/06/29 03:17:27;;;;;;;6.80;6.20;;;21.40;53.20;;;;;;5076143;28;20504;-87
2023/06/29 03:19:54;;;;;;;7.50;5.85;;;21.40;52.80;;;;;;5053658;28;20974;-87
2023/06/29 03:22:21;;;;;;;8.37;5.87;;;21.40;52.70;;;;;;5080189;28;20216;-86
2023/06/29 03:24:49;;;;;;;7.33;6.50;;;21.40;52.80;;;;;;5079368;28;20451;-87
2023/06/29 03:27:16;;;;;;;6.93;6.33;;;21.40;53.10;;;;;;5091634;28;20448;-87
2023/06/29 03:29:44;;;;;;;7.73;6.90;;;21.40;53.20;;;;;;5093113;28;20504;-88
2023/06/29 03:32:11;;;;;;;7.20;6.60;;;21.30;53.00;;;;;;5067184;28;20565;-87
2023/06/29 03:34:38;;;;;;;7.10;6.10;;;21.30;52.90;;;;;;5074577;28;20451;-87
2023/06/29 03:37:07;;;;;;;7.77;7.00;;;21.30;52.70;;;;;;5089970;28;20450;-87
2023/06/29 03:39:34;;;;;;;7.33;6.43;;;21.30;52.60;;;;;;5051665;28;20444;-87
2023/06/29 03:42:04;;;;;;;7.23;6.50;;;21.30;52.60;;;;;;5062833;28;20516;-87
2023/06/29 03:44:31;;;;;;;12.43;6.60;;;21.30;52.60;;;;;;5076174;28;20509;-86
2023/06/29 03:46:58;;;;;;;8.80;6.67;;;21.30;52.50;;;;;;5080498;28;20522;-87
2023/06/29 03:49:26;;;;;;;7.27;6.00;;;21.30;52.50;;;;;;5090478;28;20463;-87
2023/06/29 03:51:53;;;;;;;8.00;7.00;;;21.30;52.60;;;;;;5045571;28;20525;-86
2023/06/29 03:54:23;;;;;;;6.33;5.73;;;21.30;52.80;;;;;;5051989;28;20443;-89
2023/06/29 03:56:50;;;;;;;7.57;6.37;;;21.20;52.70;;;;;;5075294;28;20983;-88
2023/06/29 03:59:20;;;;;;;7.00;6.40;;;21.20;53.00;;;;;;5064890;28;20455;-88
2023/06/29 04:01:48;;;;;;;8.27;7.10;;;20.80;53.50;;;;;;5052846;27;20473;-87
2023/06/29 04:04:15;;;;;;;6.77;5.87;;;20.70;53.60;;;;;;5054759;28;20446;-88
2023/06/29 04:06:42;;;;;;;6.97;6.27;;;20.70;53.60;;;;;;5088243;28;20451;-88
2023/06/29 04:09:11;;;;;;;7.20;6.50;;;20.90;53.60;;;;;;5058645;27;20467;-88
2023/06/29 04:11:38;;;;;;;6.73;6.13;;;20.90;53.30;;;;;;5079980;28;20467;-89
2023/06/29 04:14:05;;;;;;;7.20;6.50;;;21.00;54.00;;;;;;5095782;28;20479;-87
2023/06/29 04:16:33;;;;;;;7.40;6.70;;;21.00;53.50;;;;;;5064281;28;20537;-86
2023/06/29 04:19:01;;;;;;;7.00;6.40;;;20.60;54.40;;;;;;5052967;28;20534;-87
2023/06/29 04:21:28;;;;;;;6.87;6.27;;;20.80;54.30;;;;;;5070480;28;20546;-87
2023/06/29 04:23:55;;;;;;;7.07;6.37;;;20.80;54.00;;;;;;5065430;28;20448;-87
2023/06/29 04:26:23;;;;;;;6.80;6.20;;;20.90;53.80;;;;;;5054070;28;20456;-88
2023/06/29 04:28:50;;;;;;;7.50;6.80;;;21.00;53.80;;;;;;5099373;27;20479;-88
2023/06/29 04:31:19;;;;;;;7.07;6.47;;;21.00;53.80;;;;;;5077674;28;21269;-87
2023/06/29 04:33:49;;;;;;;7.07;6.43;;;21.10;53.80;;;;;;5049897;28;20447;-88
2023/06/29 04:36:17;;;;;;;7.53;6.20;;;21.00;54.30;;;;;;5058240;28;20451;-87
2023/06/29 04:38:44;;;;;;;6.93;6.23;;;21.00;53.90;;;;;;5070829;28;20447;-88
2023/06/29 04:41:11;;;;;;;7.70;6.90;;;21.00;53.60;;;;;;5065594;28;20493;-86
2023/06/29 04:43:38;;;;;;;12.13;6.50;;;21.00;53.70;;;;;;5065400;28;20443;-86
2023/06/29 04:46:05;;;;;;;7.00;6.40;;;21.00;53.90;;;;;;5054997;28;20459;-87
2023/06/29 04:48:37;;;;;;;7.53;6.93;;;21.10;54.10;;;;;;5084541;28;20506;-87
2023/06/29 04:51:07;;;;;;;10.50;6.70;;;21.00;53.90;;;;;;5084000;28;20197;-87
2023/06/29 04:53:35;;;;;;;8.77;6.97;;;21.00;54.10;;;;;;5067519;28;20474;-86
2023/06/29 04:56:02;;;;;;;9.13;7.33;;;21.00;54.00;;;;;;5078680;28;22202;-88
2023/06/29 04:58:33;;;;;;;8.83;7.93;;;21.10;54.10;;;;;;5056909;28;20867;-87
2023/06/29 05:01:00;;;;;;;7.90;7.20;;;21.20;54.20;;;;;;5051304;28;20457;-90
2023/06/29 05:03:28;;;;;;;8.10;7.10;;;21.30;54.20;;;;;;5071541;28;20455;-88
2023/06/29 05:05:55;;;;;;;7.57;6.13;;;21.20;53.70;;;;;;5063203;27;20446;-88
2023/06/29 05:08:25;;;;;;;8.90;7.60;;;21.10;54.00;;;;;;5079269;28;20467;-88
2023/06/29 05:10:52;;;;;;;10.70;7.20;;;20.90;53.90;;;;;;5079717;28;20455;-87
2023/06/29 05:13:22;;;;;;;10.68;7.78;;;21.00;53.90;;;;;;5046147;28;20523;-88
2023/06/29 05:15:51;;;;;;;10.90;6.82;;;21.00;54.20;;;;;;5050532;27;20189;-88
2023/06/29 05:18:19;;;;;;;11.33;7.43;;;21.00;54.40;;;;;;5077876;28;20198;-88
2023/06/29 05:20:47;;;;;;;7.83;6.97;;;20.90;54.50;;;;;;5052267;28;20455;-88
2023/06/29 05:23:18;;;;;;;7.00;6.40;;;20.80;54.60;;;;;;5047792;28;20483;-88
2023/06/29 05:25:47;;;;;;;8.73;7.73;;;20.80;54.70;;;;;;5082116;28;20447;-88
2023/06/29 05:28:15;;;;;;;8.10;6.90;;;20.90;54.70;;;;;;5054871;28;20955;-88
2023/06/29 05:30:43;;;;;;;9.07;7.30;;;20.90;54.50;;;;;;5072395;28;20451;-89
2023/06/29 05:33:10;;;;;;;7.33;6.50;;;21.00;54.40;;;;;;5081694;28;20487;-87
2023/06/29 05:35:38;;;;;;;7.63;6.90;;;21.10;54.10;;;;;;5050295;28;20451;-88
2023/06/29 05:38:05;;;;;;;8.30;6.93;;;21.30;54.30;;;;;;5049005;28;20451;-90
2023/06/29 05:40:33;;;;;;;7.93;7.13;;;21.40;54.40;;;;;;5086948;28;20975;-90
2023/06/29 05:43:02;;;;;;;8.23;6.07;;;21.40;54.40;;;;;;5049156;28;20510;-89
2023/06/29 05:45:29;;;;;;;11.70;6.53;;;21.50;54.30;;;;;;5054981;28;20454;-89
2023/06/29 05:47:56;;;;;;;9.73;7.83;;;21.60;53.90;;;;;;5062628;28;21175;-90
2023/06/29 05:50:23;;;;;;;11.50;7.13;;;21.60;53.90;;;;;;5083449;28;20494;-89
2023/06/29 05:52:51;;;;;;;7.37;6.60;;;21.60;53.40;;;;;;5092233;28;20524;-90
2023/06/29 05:55:19;;;;;;;6.93;6.23;;;21.60;53.60;;;;;;5075341;28;20466;-89
2023/06/29 05:57:46;;;;;;;6.20;5.60;;;21.70;53.20;;;;;;5054658;28;20533;-89
2023/06/29 06:00:18;;;;;;;10.40;6.37;;;21.90;52.80;;;;;;5092927;28;20497;-89
2023/06/29 06:02:45;;;;;;;7.90;6.20;;;22.00;52.20;;;;;;5054661;28;20476;-88
2023/06/29 06:05:12;;;;;;;6.57;5.90;;;22.00;52.40;;;;;;5048099;28;20447;-89
2023/06/29 06:07:40;;;;;;;12.47;6.43;;;21.80;52.40;;;;;;5074832;28;20455;-88
2023/06/29 06:10:08;;;;;;;6.17;5.67;;;21.90;52.50;;;;;;5082144;28;20464;-88
2023/06/29 06:12:35;;;;;;;7.80;5.77;;;22.20;52.50;;;;;;5048439;28;20479;-88
2023/06/29 06:15:02;;;;;;;6.23;5.60;;;22.50;51.80;;;;;;5091536;28;20512;-89
2023/06/29 06:17:30;;;;;;;7.53;6.83;;;22.50;51.70;;;;;;5056735;28;20448;-88
2023/06/29 06:19:57;;;;;;;9.13;5.70;;;22.70;51.70;;;;;;5065544;28;20451;-88
2023/06/29 06:22:24;;;;;;;13.90;6.50;;;22.60;51.40;;;;;;5069346;28;21007;-89
2023/06/29 06:24:51;;;;;;;6.70;5.87;;;22.60;51.50;;;;;;5055898;28;20975;-93
2023/06/29 06:27:18;;;;;;;9.27;6.10;;;22.70;51.70;;;;;;5101059;27;20980;-92
2023/06/29 06:29:45;;;;;;;6.47;5.43;;;22.80;51.50;;;;;;5048621;28;20516;-88
2023/06/29 06:32:12;;;;;;;7.20;5.90;;;22.80;51.30;;;;;;5055291;27;21034;-89
2023/06/29 06:34:41;;;;;;;9.87;5.90;;;22.80;51.30;;;;;;5061429;28;20505;-89
2023/06/29 06:37:08;;;;;;;6.00;5.40;;;22.90;51.50;;;;;;5052722;28;20972;-89
2023/06/29 06:39:35;;;;;;;8.43;5.73;;;23.10;50.80;;;;;;5076910;28;20446;-89
2023/06/29 06:42:02;;;;;;;8.00;4.80;;;23.40;50.80;;;;;;5081929;28;20485;-86
2023/06/29 06:44:30;;;;;;;6.00;5.40;;;23.50;50.20;;;;;;5074623;28;20475;-87
2023/06/29 06:46:56;;;;;;;7.10;5.68;;;23.70;50.50;;;;;;5069403;28;20540;-89
2023/06/29 06:49:24;;;;;;;10.13;5.87;;;23.90;49.70;;;;;;5077664;28;20209;-87
2023/06/29 06:51:53;;;;;;;6.00;5.27;;;23.90;50.00;;;;;;5069054;28;20467;-88
2023/06/29 06:54:21;;;;;;;10.13;5.77;;;23.80;50.30;;;;;;5050725;28;20448;-88
2023/06/29 06:56:48;;;;;;;19.10;6.37;;;23.80;50.00;;;;;;5049977;28;20455;-87
2023/06/29 06:59:15;;;;;;;8.23;6.10;;;23.90;50.00;;;;;;5052392;28;20463;-88
2023/06/29 07:01:42;;;;;;;10.43;7.97;;;24.10;50.10;;;;;;5072210;28;20483;-91
2023/06/29 07:04:10;;;;;;;13.27;7.00;;;24.20;49.80;;;;;;5053529;28;20443;-87
2023/06/29 07:06:38;;;;;;;7.30;5.77;;;24.20;49.70;;;;;;5082407;28;20464;-88
2023/06/29 07:09:07;;;;;;;12.33;5.60;;;24.30;48.90;;;;;;5048706;28;20482;-88
2023/06/29 07:11:34;;;;;;;8.67;6.30;;;24.30;49.50;;;;;;5051238;28;20463;-88
2023/06/29 07:14:01;;;;;;;5.47;5.00;;;24.60;49.50;;;;;;5081347;28;20577;-87
2023/06/29 07:16:30;;;;;;;11.40;5.70;;;24.90;49.00;;;;;;5094573;28;20456;-87
2023/06/29 07:19:04;;;;;;;8.83;5.30;;;25.10;48.70;;;;;;5052986;28;20451;-93
2023/06/29 07:21:32;;;;;;;10.80;5.40;;;25.40;48.20;;;;;;5056466;28;20466;-88
2023/06/29 07:24:00;;;;;;;8.67;5.30;;;25.60;47.90;;;;;;5054595;28;20454;-87
2023/06/29 07:26:29;;;;;;;10.80;4.60;;;25.80;47.60;;;;;;5077835;28;20470;-88
2023/06/29 07:28:56;;;;;;;5.07;4.40;;;25.90;47.80;;;;;;5073986;27;20956;-86
2023/06/29 07:31:25;;;;;;;13.80;5.50;;;25.90;47.50;;;;;;5079181;28;20221;-87
2023/06/29 07:33:53;;;;;;;5.10;4.50;;;25.80;47.50;;;;;;5094654;27;20524;-86
2023/06/29 07:36:20;;;;;;;8.00;5.43;;;26.00;47.80;;;;;;5081100;28;20209;-87
2023/06/29 07:38:47;;;;;;;5.47;5.00;;;26.20;47.50;;;;;;5059845;28;20938;-86
2023/06/29 07:41:14;;;;;;;6.23;5.10;;;26.20;46.60;;;;;;5107386;27;20451;-84
2023/06/29 07:43:46;;;;;;;8.53;5.63;;;26.20;47.20;;;;;;5092336;28;21213;-85
2023/06/29 07:46:14;;;;;;;6.10;5.00;;;26.20;47.50;;;;;;5051054;28;20955;-86
2023/06/29 07:48:42;;;;;;;12.53;5.27;;;26.50;47.50;;;;;;5060441;28;20828;-86
2023/06/29 07:51:09;;;;;;;7.23;5.10;;;26.60;46.90;;;;;;5092827;28;20487;-85
2023/06/29 07:53:37;;;;;;;7.70;4.87;;;26.80;46.60;;;;;;5076573;28;20447;-85
2023/06/29 07:56:04;;;;;;;15.23;5.53;;;27.00;46.30;;;;;;5046103;28;20451;-86
2023/06/29 07:58:31;;;;;;;7.63;5.07;;;27.00;46.30;;;;;;5093858;28;21033;-85
2023/06/29 08:00:59;;;;;;;11.20;4.77;;;26.90;46.40;;;;;;5050838;28;20454;-86
2023/06/29 08:03:27;;;;;;;5.70;4.90;;;26.90;46.60;;;;;;5074041;28;21003;-85
2023/06/29 08:05:53;;;;;;;5.27;4.67;;;26.90;46.60;;;;;;5048924;28;20455;-85
2023/06/29 08:08:21;;;;;;;5.40;4.90;;;27.20;46.50;;;;;;5071839;28;20451;-87
2023/06/29 08:10:48;;;;;;;5.63;4.97;;;27.40;46.20;;;;;;5061831;28;20474;-84
2023/06/29 08:13:15;;;;;;;12.43;5.13;;;27.50;45.60;;;;;;5072475;28;21117;-85
2023/06/29 08:15:42;;;;;;;5.93;4.57;;;27.70;45.60;;;;;;5060733;28;20443;-87
2023/06/29 08:18:11;;;;;;;8.50;5.53;;;27.70;44.80;;;;;;5047667;28;20477;-84
2023/06/29 08:20:38;;;;;;;6.57;4.60;;;27.80;44.40;;;;;;5067282;28;20455;-85
2023/06/29 08:23:05;;;;;;;5.97;4.20;;;27.90;44.90;;;;;;5063921;28;20257;-84
2023/06/29 08:25:32;;;;;;;8.20;5.10;;;28.00;43.60;;;;;;5108536;27;20530;-84
2023/06/29 08:27:59;;;;;;;4.17;3.77;;;28.20;43.80;;;;;;5064720;28;20585;-85
2023/06/29 08:30:26;;;;;;;4.93;4.30;;;27.90;42.00;;;;;;5058231;28;20480;-85
2023/06/29 08:32:54;;;;;;;6.23;4.27;;;27.70;42.70;;;;;;5105494;27;21168;-84
2023/06/29 08:35:22;;;;;;;5.90;4.20;;;27.70;43.10;;;;;;5058481;28;20440;-85
2023/06/29 08:37:49;;;;;;;4.53;3.67;;;27.70;43.10;;;;;;5098823;28;20443;-84
2023/06/29 08:40:21;;;;;;;6.37;4.77;;;27.90;42.90;;;;;;5080606;28;20440;-84
2023/06/29 08:42:48;;;;;;;4.43;4.03;;;28.30;42.50;;;;;;5073595;28;20534;-85
2023/06/29 08:45:16;;;;;;;4.30;3.90;;;28.50;42.00;;;;;;5057480;28;20873;-85
2023/06/29 08:47:44;;;;;;;4.33;3.67;;;28.80;40.70;;;;;;5086876;28;20452;-85
2023/06/29 08:50:11;;;;;;;7.33;4.03;;;28.90;40.50;;;;;;5082081;28;20490;-84
2023/06/29 08:52:41;;;;;;;4.53;3.30;;;29.10;39.30;;;;;;5089021;28;20471;-85
2023/06/29 08:55:09;;;;;;;7.23;3.47;;;29.20;39.40;;;;;;5101607;27;20447;-85
2023/06/29 08:57:37;;;;;;;3.40;3.10;;;29.00;38.40;;;;;;5062860;28;20451;-85
2023/06/29 09:00:05;;;;;;;4.45;3.50;;;28.90;38.30;;;;;;5104672;27;20951;-84
2023/06/29 09:02:35;;;;;;;4.70;3.47;;;28.50;38.70;;;;;;5070397;28;20230;-85
2023/06/29 09:05:03;;;;;;;11.80;3.90;;;28.60;40.00;;;;;;5046431;28;20208;-85
2023/06/29 09:07:31;;;;;;;4.93;4.00;;;29.00;39.30;;;;;;5057967;28;20443;-84
2023/06/29 09:10:05;;;;;;;3.53;3.23;;;29.30;38.50;;;;;;5072887;28;20483;-87
2023/06/29 09:12:33;;;;;;;4.50;3.40;;;29.40;38.20;;;;;;5047714;28;21093;-85
2023/06/29 09:15:01;;;;;;;3.43;3.13;;;29.60;38.10;;;;;;5070890;28;20983;-86
2023/06/29 09:17:33;;;;;;;4.60;3.50;;;29.60;37.60;;;;;;5070124;28;20479;-85
2023/06/29 09:20:07;;;;;;;3.67;3.33;;;29.90;37.70;;;;;;5067540;28;20948;-85
2023/06/29 09:22:35;;;;;;;3.80;3.50;;;30.30;37.20;;;;;;5049865;28;21059;-84
2023/06/29 09:25:06;;;;;;;4.50;3.60;;;30.40;36.10;;;;;;5072025;28;20529;-85
2023/06/29 09:27:34;;;;;;;3.20;3.00;;;30.40;35.30;;;;;;5087794;28;20526;-86
2023/06/29 09:30:04;;;;;;;3.83;3.43;;;30.30;35.90;;;;;;5091320;28;20540;-86
2023/06/29 09:32:32;;;;;;;3.85;3.50;;;30.20;35.10;;;;;;5037978;28;20462;-85
2023/06/29 09:35:07;;;;;;;5.10;3.47;;;30.30;35.50;;;;;;5048865;28;20561;-85
2023/06/29 09:37:34;;;;;;;5.88;3.80;;;30.50;35.50;;;;;;5065005;27;20454;-85
2023/06/29 09:40:09;;;;;;;7.00;3.33;;;30.90;34.70;;;;;;5075642;28;20762;-86
2023/06/29 09:42:38;;;;;;;3.73;3.43;;;31.10;34.60;;;;;;5068703;28;20519;-85
2023/06/29 09:45:11;;;;;;;4.30;3.80;;;31.10;34.40;;;;;;5059268;28;20448;-85
2023/06/29 09:47:40;;;;;;;4.60;3.20;;;31.40;34.80;;;;;;5066554;28;21138;-86
2023/06/29 09:50:17;;;;;;;3.77;2.80;;;31.60;33.80;;;;;;5061287;28;20463;-86
2023/06/29 09:52:46;;;;;;;3.70;3.00;;;31.70;33.30;;;;;;5104860;27;20950;-85
2023/06/29 09:55:15;;;;;;;3.50;3.20;;;31.70;33.10;;;;;;5045266;28;20444;-87
2023/06/29 09:57:45;;;;;;;3.80;3.37;;;31.70;32.40;;;;;;5106996;27;21005;-85
2023/06/29 10:00:13;;;;;;;4.33;3.20;;;31.40;32.20;;;;;;5058470;28;20442;-86
2023/06/29 10:02:44;;;;;;;3.93;3.53;;;31.60;33.20;;;;;;5066032;28;20475;-86
2023/06/29 10:05:12;;;;;;;3.43;3.13;;;31.80;32.10;;;;;;5104759;27;20455;-85
2023/06/29 10:07:42;;;;;;;3.57;3.27;;;31.50;31.60;;;;;;5042792;28;20875;-86
2023/06/29 10:10:13;;;;;;;6.37;3.10;;;31.20;32.00;;;;;;5080329;28;20464;-86
2023/06/29 10:12:43;;;;;;;3.33;3.13;;;31.00;32.50;;;;;;5054643;28;20543;-86
2023/06/29 10:15:12;;;;;;;3.73;2.93;;;31.00;32.40;;;;;;5062207;28;20468;-85
2023/06/29 10:17:49;;;;;;;5.18;2.70;;;30.80;33.60;;;;;;5054673;28;20444;-86
2023/06/29 10:20:18;;;;;;;3.57;2.80;;;31.10;33.80;;;;;;5057121;28;20193;-85
2023/06/29 10:22:47;;;;;;;2.83;2.63;;;31.50;32.80;;;;;;5072497;28;20468;-85
2023/06/29 10:25:17;;;;;;;2.93;2.73;;;31.90;32.40;;;;;;5090377;28;20441;-86
2023/06/29 10:27:47;;;;;;;3.73;2.53;;;31.80;30.30;;;;;;5089514;28;21024;-84
2023/06/29 10:30:19;;;;;;;4.80;3.25;;;31.60;31.80;;;;;;5074364;28;20470;-85
2023/06/29 10:32:50;;;;;;;4.37;2.97;;;31.60;30.80;;;;;;5070443;28;20323;-85
2023/06/29 10:35:18;;;;;;;2.80;2.60;;;31.50;31.50;;;;;;5054294;28;20453;-85
2023/06/29 10:37:48;;;;;;;3.13;2.83;;;31.50;31.20;;;;;;5089753;28;20197;-85
2023/06/29 10:40:16;;;;;;;2.90;2.70;;;31.70;30.60;;;;;;5088539;28;20284;-85
2023/06/29 10:42:53;;;;;;;3.07;2.80;;;31.70;30.50;;;;;;5090154;27;20472;-85
2023/06/29 10:45:33;;;;;;;3.50;2.67;;;31.40;30.70;;;;;;5058743;28;21002;-86
2023/06/29 10:48:05;;;;;;;4.78;2.92;;;31.40;31.30;;;;;;5046723;28;20475;-85
2023/06/29 10:50:35;;;;;;;7.13;2.63;;;31.30;32.60;;;;;;5053180;28;20589;-85
2023/06/29 10:53:04;;;;;;;5.60;2.60;;;31.70;31.40;;;;;;5044497;28;20468;-85
2023/06/29 10:55:40;;;;;;;3.80;2.73;;;31.90;30.20;;;;;;5044037;28;20458;-84
2023/06/29 10:58:14;;;;;;;6.37;2.87;;;31.90;30.00;;;;;;5076975;28;20439;-85
2023/06/29 11:00:41;;;;;;;3.90;2.70;;;32.30;29.90;;;;;;5044565;28;20516;-86
2023/06/29 11:03:09;;;;;;;2.77;2.57;;;32.40;30.00;;;;;;5084428;28;20462;-85
2023/06/29 11:05:37;;;;;;;4.23;2.73;;;32.60;29.90;;;;;;5056398;28;20447;-86
2023/06/29 11:08:06;;;;;;;2.80;2.57;;;32.50;29.70;;;;;;5073294;28;20451;-85
2023/06/29 11:10:33;;;;;;;3.43;3.10;;;32.10;29.90;;;;;;5047972;28;20470;-85
2023/06/29 11:13:01;;;;;;;5.80;2.60;;;31.90;29.90;;;;;;5049708;28;21057;-86
2023/06/29 11:15:29;;;;;;;7.38;3.00;;;32.50;30.50;;;;;;5065125;28;20459;-86
2023/06/29 11:17:57;;;;;;;2.83;2.63;;;32.80;29.80;;;;;;5063934;28;20207;-84
2023/06/29 11:20:29;;;;;;;3.47;3.17;;;33.10;29.30;;;;;;5059559;28;20475;-85
2023/06/29 11:22:57;;;;;;;3.57;3.30;;;33.20;29.30;;;;;;5048461;27;21101;-85
2023/06/29 11:25:25;;;;;;;2.77;2.50;;;33.20;29.50;;;;;;5059303;28;20452;-86
2023/06/29 11:27:53;;;;;;;2.93;2.73;;;33.50;29.30;;;;;;5065136;28;21062;-86
2023/06/29 11:30:21;;;;;;;4.27;2.90;;;33.30;29.00;;;;;;5081237;28;20494;-86
2023/06/29 11:32:52;;;;;;;3.63;2.60;;;33.60;29.20;;;;;;5057690;28;20468;-85
2023/06/29 11:35:23;;;;;;;3.20;2.80;;;33.80;28.80;;;;;;5058897;28;20482;-84
2023/06/29 11:37:52;;;;;;;3.03;2.72;;;33.90;28.60;;;;;;5071427;28;20462;-84
2023/06/29 11:40:21;;;;;;;3.87;2.80;;;33.30;29.50;;;;;;5048707;28;20846;-84
2023/06/29 11:42:49;;;;;;;2.90;2.50;;;33.20;29.20;;;;;;5090273;28;20841;-85
2023/06/29 11:45:17;;;;;;;6.10;3.10;;;33.20;29.50;;;;;;5048761;28;20463;-83
2023/06/29 11:47:46;;;;;;;2.90;2.70;;;33.50;29.70;;;;;;5046712;28;20492;-85
2023/06/29 11:50:17;;;;;;;3.07;2.87;;;33.60;28.40;;;;;;5090609;28;20456;-86
2023/06/29 11:52:45;;;;;;;3.30;3.10;;;33.40;28.50;;;;;;5047796;28;20467;-86
2023/06/29 11:55:13;;;;;;;2.80;2.37;;;33.40;29.00;;;;;;5047314;28;20471;-85
2023/06/29 11:57:41;;;;;;;4.70;2.60;;;33.50;29.40;;;;;;5048323;27;20963;-86
2023/06/29 12:00:29;;;;;;;3.33;3.10;;;33.40;28.80;;;;;;5060925;28;21326;-86
2023/06/29 12:02:56;;;;;;;3.30;2.30;;;33.20;29.00;;;;;;5047034;27;20470;-85
2023/06/29 12:05:29;;;;;;;4.85;3.55;;;33.40;30.00;;;;;;5075729;28;20469;-85
2023/06/29 12:07:57;;;;;;;3.10;2.90;;;33.90;29.40;;;;;;5073718;28;20209;-86
2023/06/29 12:10:25;;;;;;;5.00;2.80;;;34.10;29.30;;;;;;5090903;28;20432;-86
2023/06/29 12:12:55;;;;;;;3.93;2.80;;;33.80;28.50;;;;;;5039622;28;20501;-86
2023/06/29 12:15:25;;;;;;;3.53;3.13;;;33.90;28.10;;;;;;5092421;28;20999;-86
2023/06/29 12:17:53;;;;;;;3.35;3.15;;;33.80;29.80;;;;;;5076730;28;21106;-85
2023/06/29 12:20:22;;;;;;;2.90;2.70;;;34.00;28.60;;;;;;5057758;28;20671;-86
2023/06/29 12:22:53;;;;;;;4.00;2.97;;;33.70;28.70;;;;;;5075806;28;20486;-86
2023/06/29 12:25:23;;;;;;;7.23;3.00;;;33.60;29.00;;;;;;5060567;28;20451;-86
2023/06/29 12:27:51;;;;;;;2.90;2.70;;;33.70;29.00;;;;;;5072947;28;20500;-86
2023/06/29 12:30:20;;;;;;;6.13;3.50;;;33.70;29.00;;;;;;5082862;28;20463;-86
2023/06/29 12:32:49;;;;;;;2.90;2.70;;;33.60;28.40;;;;;;5061068;27;20478;-87
2023/06/29 12:35:17;;;;;;;3.17;2.87;;;33.60;29.20;;;;;;5049738;28;20535;-86
2023/06/29 12:37:44;;;;;;;4.43;2.83;;;33.60;29.60;;;;;;5057797;28;20438;-86
2023/06/29 12:40:14;;;;;;;3.10;2.80;;;33.60;30.10;;;;;;5079711;28;20531;-86
2023/06/29 12:42:41;;;;;;;3.03;2.73;;;33.80;29.80;;;;;;5048741;28;20517;-85
2023/06/29 12:45:10;;;;;;;5.23;2.70;;;33.60;29.50;;;;;;5065197;28;20450;-86
2023/06/29 12:47:37;;;;;;;3.33;3.03;;;33.40;30.00;;;;;;5090821;28;20452;-86
2023/06/29 12:50:06;;;;;;;3.20;2.90;;;33.40;30.60;;;;;;5081991;28;20455;-86
2023/06/29 12:52:33;;;;;;;7.00;3.17;;;33.30;29.70;;;;;;5065200;28;20516;-86